Time;durP1;ratioP1;P1;durP2;ratioP2;P2;SDS_P1;SDS_P2;PMS_P1;PMS_P2;Temp;Humidity;BMP_temperature;BMP_pressure;BME280_temperature;BME280_humidity;BME280_pressure;Samples;Min_cycle;Max_cycle;Signal;HPM_P1;HPM_P2
2021/09/10 00:00:16;;;;;;;14.27;7.10;;;19.80;99.90;;;20.45;65.70;100744.66;4981061;28;20246;-71
2021/09/10 00:02:43;;;;;;;14.82;6.72;;;19.80;99.90;;;20.45;66.28;100739.34;4979407;28;20212;-70
2021/09/10 00:05:12;;;;;;;14.05;7.22;;;19.80;99.90;;;20.45;66.24;100744.66;4979165;28;20191;-69
2021/09/10 00:07:39;;;;;;;15.30;8.13;;;19.80;99.90;;;20.42;66.16;100745.75;4977669;28;20199;-70
2021/09/10 00:10:08;;;;;;;15.27;7.55;;;19.70;99.90;;;20.40;66.37;100737.03;4973576;28;20719;-69
2021/09/10 00:12:34;;;;;;;14.63;7.30;;;19.70;99.90;;;20.39;66.25;100750.47;4988009;28;20220;-69
2021/09/10 00:15:01;;;;;;;17.95;7.00;;;19.70;99.90;;;20.38;66.20;100748.78;4973750;28;20183;-70
2021/09/10 00:17:29;;;;;;;14.43;7.18;;;19.70;99.90;;;20.35;66.92;100751.66;4968776;28;20201;-70
2021/09/10 00:19:56;;;;;;;14.38;6.63;;;19.70;99.90;;;20.32;66.95;100742.13;4973486;28;20203;-70
2021/09/10 00:22:24;;;;;;;14.00;7.60;;;19.60;99.90;;;20.32;66.92;100749.22;4973809;28;20210;-70
2021/09/10 00:24:50;;;;;;;14.63;7.00;;;19.60;99.90;;;20.30;67.13;100756.47;4989461;28;20232;-70
2021/09/10 00:27:17;;;;;;;16.42;7.32;;;19.60;99.90;;;20.29;67.25;100750.34;4989440;28;20187;-70
2021/09/10 00:29:44;;;;;;;15.52;7.15;;;19.60;99.90;;;20.28;66.94;100747.78;4976137;28;20191;-69
2021/09/10 00:32:11;;;;;;;13.88;7.05;;;19.60;99.90;;;20.28;67.19;100747.78;4974154;28;20219;-70
2021/09/10 00:34:37;;;;;;;14.15;7.35;;;19.60;99.90;;;20.27;67.49;100756.72;4974511;28;20536;-70
2021/09/10 00:37:04;;;;;;;16.55;7.55;;;19.60;99.90;;;20.26;67.50;100745.22;4973024;28;20554;-70
2021/09/10 00:39:33;;;;;;;13.60;6.80;;;19.60;99.90;;;20.25;67.58;100753.31;4973692;28;20199;-70
2021/09/10 00:41:59;;;;;;;14.43;7.65;;;19.60;99.90;;;20.25;67.52;100748.00;4988500;28;20211;-70
2021/09/10 00:44:26;;;;;;;13.95;7.28;;;19.50;99.90;;;20.21;67.35;100742.06;4974315;28;20191;-70
2021/09/10 00:46:53;;;;;;;14.75;7.15;;;19.50;99.90;;;20.20;67.68;100751.03;4982108;28;20196;-69
2021/09/10 00:49:20;;;;;;;15.77;7.60;;;19.50;99.90;;;20.18;67.78;100739.66;4983340;28;20194;-71
2021/09/10 00:51:48;;;;;;;15.32;7.00;;;19.50;99.90;;;20.17;67.90;100734.47;4979151;28;20219;-69
2021/09/10 00:54:14;;;;;;;16.08;9.00;;;19.50;99.90;;;20.15;68.22;100739.91;4985580;28;20215;-71
2021/09/10 00:56:42;;;;;;;13.50;7.22;;;19.50;99.90;;;20.13;68.48;100738.31;4982395;28;20196;-68
2021/09/10 00:59:09;;;;;;;15.93;7.63;;;19.50;99.90;;;20.12;68.65;100739.25;4980095;28;20187;-68
2021/09/10 01:01:36;;;;;;;14.75;7.20;;;19.40;99.90;;;20.10;68.71;100734.06;4989317;28;20207;-70
2021/09/10 01:04:04;;;;;;;13.88;7.20;;;19.40;99.90;;;20.08;68.89;100741.28;4992342;28;20219;-70
2021/09/10 01:09:02;;;;;;;14.20;7.70;;;19.40;99.90;;;20.04;69.00;100739.84;4992296;28;20250;-71
2021/09/10 01:11:29;;;;;;;14.43;7.30;;;19.40;99.90;;;20.03;69.34;100743.47;4984219;28;20212;-68
2021/09/10 01:13:58;;;;;;;14.93;7.75;;;19.30;99.90;;;19.99;69.66;100737.53;4981291;28;20238;-68
2021/09/10 01:16:25;;;;;;;14.52;7.45;;;19.30;99.90;;;19.98;69.43;100745.63;4981124;28;20283;-68
2021/09/10 01:18:53;;;;;;;14.93;7.70;;;19.30;99.90;;;19.98;69.70;100749.13;4975067;28;20192;-67
2021/09/10 01:21:19;;;;;;;16.63;7.68;;;19.30;99.90;;;19.99;69.36;100747.34;4978751;28;20214;-68
2021/09/10 01:23:46;;;;;;;15.65;7.65;;;19.30;99.90;;;19.98;69.58;100738.50;4985185;28;20259;-68
2021/09/10 01:26:14;;;;;;;13.13;7.43;;;19.30;99.90;;;19.98;69.47;100740.31;4981027;28;20188;-68
2021/09/10 01:28:41;;;;;;;15.43;7.10;;;19.30;99.90;;;19.97;69.72;100738.63;4995930;28;20197;-70
2021/09/10 01:31:08;;;;;;;15.60;7.28;;;19.20;99.90;;;19.98;69.78;100747.44;4997818;28;20235;-73
2021/09/10 01:33:35;;;;;;;15.38;7.32;;;19.20;99.90;;;19.97;69.70;100743.94;4981688;28;20246;-69
2021/09/10 01:36:02;;;;;;;13.90;7.28;;;19.20;99.90;;;19.94;69.81;100745.00;4988267;28;20188;-70
2021/09/10 01:38:29;;;;;;;14.77;8.10;;;19.20;99.90;;;19.94;69.95;100744.19;4974799;28;20199;-67
2021/09/10 01:40:55;;;;;;;16.00;7.88;;;19.20;99.90;;;19.93;70.31;100748.63;4973777;28;20211;-69
2021/09/10 01:43:23;;;;;;;14.02;7.43;;;19.20;99.90;;;19.91;70.59;100747.91;4988906;28;20192;-70
2021/09/10 01:45:50;;;;;;;14.77;7.53;;;19.20;99.90;;;19.90;70.53;100748.00;4973695;28;20199;-70
2021/09/10 01:48:17;;;;;;;16.23;7.82;;;19.20;99.90;;;19.90;70.28;100745.34;4971955;28;20191;-70
2021/09/10 01:50:44;;;;;;;18.83;7.90;;;19.20;99.90;;;19.90;70.72;100746.22;4972048;28;20215;-70
2021/09/10 01:53:11;;;;;;;15.35;7.40;;;19.20;99.90;;;19.89;70.74;100757.78;4976222;28;20211;-70
2021/09/10 01:55:38;;;;;;;14.52;7.32;;;19.20;99.90;;;19.89;70.89;100754.31;4975791;28;20199;-72
2021/09/10 01:58:05;;;;;;;18.48;7.60;;;19.20;99.90;;;19.88;70.78;100745.47;4975669;28;20191;-68
2021/09/10 02:00:33;;;;;;;17.75;7.72;;;19.20;99.90;;;19.87;71.25;100754.41;4975678;28;20195;-70
2021/09/10 02:03:00;;;;;;;17.17;8.40;;;19.20;99.90;;;19.85;71.39;100759.00;4976185;28;20587;-73
2021/09/10 02:05:27;;;;;;;16.25;7.65;;;19.10;99.90;;;19.83;71.35;100755.59;4976074;28;20569;-70
2021/09/10 02:07:54;;;;;;;14.27;7.30;;;19.10;99.90;;;19.81;71.55;100754.88;4976436;28;20201;-70
2021/09/10 02:10:20;;;;;;;14.65;7.50;;;19.10;99.90;;;19.81;71.46;100748.69;4972355;28;20184;-70
2021/09/10 02:12:47;;;;;;;14.05;7.72;;;19.10;99.90;;;19.80;71.64;100766.47;4976103;28;20195;-70
2021/09/10 02:15:14;;;;;;;14.30;7.78;;;19.10;99.90;;;19.79;71.93;100750.66;4974983;28;20187;-69
2021/09/10 02:17:43;;;;;;;17.60;8.40;;;19.10;99.90;;;19.79;71.79;100762.09;4979966;28;20211;-69
2021/09/10 02:20:11;;;;;;;15.50;7.78;;;19.10;99.90;;;19.78;71.87;100755.09;4987328;28;20190;-70
2021/09/10 02:22:38;;;;;;;14.30;8.00;;;19.10;99.90;;;19.77;71.79;100757.88;4994736;28;20221;-67
2021/09/10 02:25:07;;;;;;;16.38;8.15;;;19.10;99.90;;;19.73;71.97;100751.09;4979393;28;20191;-67
2021/09/10 02:27:34;;;;;;;15.57;8.02;;;19.10;99.90;;;19.72;72.29;100757.38;4995770;28;20567;-69
2021/09/10 02:30:01;;;;;;;16.48;7.82;;;19.00;99.90;;;19.71;72.40;100753.84;4980683;28;20200;-67
2021/09/10 02:32:27;;;;;;;15.38;7.68;;;19.00;99.90;;;19.70;72.62;100752.19;4980178;28;20199;-69
2021/09/10 02:34:56;;;;;;;16.10;7.47;;;19.00;99.90;;;19.71;72.45;100753.00;4977713;28;20203;-69
2021/09/10 02:37:23;;;;;;;16.02;7.85;;;19.00;99.90;;;19.70;72.62;100751.31;4977130;28;20194;-74
2021/09/10 02:39:52;;;;;;;14.00;7.85;;;19.00;99.90;;;19.70;72.82;100752.19;4974002;28;20199;-70
2021/09/10 02:42:19;;;;;;;15.38;8.30;;;19.00;99.90;;;19.69;72.53;100755.78;4978388;28;20241;-70
2021/09/10 02:44:46;;;;;;;14.88;8.15;;;19.00;99.90;;;19.67;73.42;100757.72;4976641;28;20183;-69
2021/09/10 02:47:12;;;;;;;15.55;8.20;;;19.00;99.90;;;19.66;72.94;100750.69;4990542;28;20254;-70
2021/09/10 02:49:39;;;;;;;14.82;8.10;;;19.00;99.90;;;19.66;73.22;100742.72;4974824;28;20191;-69
2021/09/10 02:52:07;;;;;;;15.93;8.27;;;19.00;99.90;;;19.67;73.26;100746.25;4975076;28;20199;-70
2021/09/10 02:54:35;;;;;;;15.75;8.20;;;19.00;99.90;;;19.66;73.42;100749.84;4974372;28;20258;-69
2021/09/10 02:57:02;;;;;;;16.75;8.93;;;19.00;99.90;;;19.63;73.75;100750.94;4969854;28;20218;-69
2021/09/10 02:59:29;;;;;;;14.90;8.50;;;19.00;99.90;;;19.62;73.63;100751.06;4974689;28;20274;-69
2021/09/10 03:01:57;;;;;;;16.58;8.55;;;18.90;99.90;;;19.58;73.58;100742.47;4972952;28;20207;-70
2021/09/10 03:04:25;;;;;;;17.70;9.10;;;18.90;99.90;;;19.57;73.88;100747.88;4968636;28;20222;-70
2021/09/10 03:06:52;;;;;;;15.35;8.38;;;18.90;99.90;;;19.56;73.76;100749.69;4975901;28;20180;-69
2021/09/10 03:09:20;;;;;;;16.77;8.52;;;18.90;99.90;;;19.56;73.93;100748.81;4976609;28;20574;-70
2021/09/10 03:11:47;;;;;;;19.27;9.43;;;18.90;99.90;;;19.53;73.97;100743.75;4973931;28;20224;-71
2021/09/10 03:14:14;;;;;;;18.92;8.57;;;18.80;99.90;;;19.51;74.06;100746.53;4973835;28;20210;-70
2021/09/10 03:16:40;;;;;;;15.85;8.52;;;18.80;99.90;;;19.48;74.25;100738.78;4974742;28;20183;-68
2021/09/10 03:19:07;;;;;;;15.18;7.97;;;18.80;99.90;;;19.45;74.03;100736.38;4975166;28;20191;-73
2021/09/10 03:21:34;;;;;;;16.92;8.52;;;18.80;99.90;;;19.41;74.63;100737.53;4974072;28;20214;-71
2021/09/10 03:24:00;;;;;;;16.45;8.80;;;18.70;99.90;;;19.37;74.42;100737.88;4970546;28;20196;-70
2021/09/10 03:26:29;;;;;;;16.35;8.88;;;18.70;99.90;;;19.32;74.60;100745.34;4970353;28;20187;-70
2021/09/10 03:28:55;;;;;;;15.73;8.77;;;18.60;99.90;;;19.31;74.62;100738.31;4977108;28;20605;-70
2021/09/10 03:31:22;;;;;;;16.73;9.30;;;18.60;99.90;;;19.28;74.92;100735.88;4974438;28;20211;-71
2021/09/10 03:33:49;;;;;;;16.58;9.38;;;18.60;99.90;;;19.25;75.18;100744.91;4963926;28;20571;-70
2021/09/10 03:36:15;;;;;;;15.63;8.93;;;18.60;99.90;;;19.22;75.12;100752.25;4973342;28;20256;-71
2021/09/10 03:38:42;;;;;;;16.23;9.63;;;18.60;99.90;;;19.22;75.00;100744.28;4974761;28;20192;-72
2021/09/10 03:41:09;;;;;;;19.13;9.85;;;18.60;99.90;;;19.23;75.08;100740.66;4988699;28;20226;-70
2021/09/10 03:46:19;;;;;;;17.83;9.30;;;18.50;99.90;;;19.20;75.50;100743.53;4968305;28;20196;-70
2021/09/10 03:48:46;;;;;;;18.90;10.20;;;18.50;99.90;;;19.16;75.32;100750.88;4976227;28;20191;-69
2021/09/10 03:51:13;;;;;;;17.60;9.77;;;18.50;99.90;;;19.16;75.90;100752.69;4974385;28;20219;-70
2021/09/10 03:53:39;;;;;;;19.13;9.60;;;18.50;99.90;;;19.15;75.75;100751.84;4968505;28;20242;-70
2021/09/10 03:56:07;;;;;;;22.60;9.95;;;18.50;99.90;;;19.16;75.60;100745.56;4973909;28;20187;-71
2021/09/10 03:58:34;;;;;;;16.30;9.38;;;18.50;99.90;;;19.16;75.89;100756.19;4973530;28;20253;-73
2021/09/10 04:01:04;;;;;;;19.35;10.18;;;18.50;99.90;;;19.14;75.62;100750.13;4971967;28;20227;-71
2021/09/10 04:03:32;;;;;;;19.33;10.27;;;18.50;99.90;;;19.14;75.84;100760.75;4971351;28;20195;-71
2021/09/10 04:06:00;;;;;;;19.90;9.63;;;18.50;99.90;;;19.14;76.10;100757.28;4972481;28;20599;-72
2021/09/10 04:08:27;;;;;;;17.58;10.02;;;18.50;99.90;;;19.13;76.10;100760.88;4974913;28;20191;-70
2021/09/10 04:10:54;;;;;;;17.38;9.65;;;18.50;99.90;;;19.11;76.42;100757.47;4972763;28;20215;-70
2021/09/10 04:13:21;;;;;;;21.73;10.68;;;18.50;99.90;;;19.10;76.37;100761.94;4968984;28;20209;-70
2021/09/10 04:15:47;;;;;;;21.38;10.38;;;18.50;99.90;;;19.10;76.12;100767.25;4970467;28;20711;-71
2021/09/10 04:18:15;;;;;;;16.65;9.93;;;18.50;99.90;;;19.10;76.13;100772.56;4973232;28;20207;-68
2021/09/10 04:20:42;;;;;;;16.40;9.73;;;18.50;99.90;;;19.11;76.16;100768.94;4972149;28;20199;-69
2021/09/10 04:23:09;;;;;;;16.10;8.82;;;18.50;99.90;;;19.11;76.59;100766.28;4973133;28;20198;-72
2021/09/10 04:25:36;;;;;;;19.67;9.77;;;18.50;99.90;;;19.09;76.24;100765.53;4972782;28;20192;-70
2021/09/10 04:28:03;;;;;;;16.20;9.55;;;18.50;99.90;;;19.11;76.48;100774.25;4971355;28;20195;-69
2021/09/10 04:30:29;;;;;;;19.48;9.65;;;18.50;99.90;;;19.08;76.58;100778.91;4971090;28;20187;-72
2021/09/10 04:32:56;;;;;;;17.35;9.27;;;18.50;99.90;;;19.08;76.47;100778.91;4970246;28;20183;-70
2021/09/10 04:35:24;;;;;;;16.75;9.25;;;18.50;99.90;;;19.09;76.78;100780.63;4971317;28;20211;-70
2021/09/10 04:37:51;;;;;;;18.45;9.48;;;18.50;99.90;;;19.08;76.50;100777.13;4971660;28;20552;-70
2021/09/10 04:40:18;;;;;;;20.98;10.57;;;18.50;99.90;;;19.09;76.79;100784.13;4971044;28;20207;-70
2021/09/10 04:42:45;;;;;;;21.60;10.32;;;18.40;99.90;;;19.07;76.59;100788.72;4986470;28;20310;-70
2021/09/10 04:45:12;;;;;;;18.95;10.00;;;18.40;99.90;;;19.07;76.62;100794.03;4972723;28;20191;-70
2021/09/10 04:47:39;;;;;;;19.70;9.93;;;18.50;99.90;;;19.07;76.68;100790.50;4971519;28;20195;-70
2021/09/10 04:50:07;;;;;;;17.48;9.90;;;18.40;99.90;;;19.04;77.30;100794.22;4971315;28;20199;-69
2021/09/10 04:52:38;;;;;;;18.85;10.32;;;18.40;99.90;;;19.01;77.23;100799.75;4966876;28;20234;-69
2021/09/10 04:55:07;;;;;;;17.05;9.52;;;18.40;99.90;;;19.00;77.64;100797.19;4986875;28;20212;-70
2021/09/10 04:57:34;;;;;;;17.20;9.63;;;18.40;99.90;;;19.00;77.62;100798.06;4979462;28;20250;-70
2021/09/10 05:00:00;;;;;;;19.20;9.73;;;18.40;99.90;;;18.99;77.41;100806.13;4971890;28;20191;-69
2021/09/10 05:02:27;;;;;;;17.08;10.23;;;18.40;99.90;;;19.00;77.71;100803.38;4971754;28;20618;-72
2021/09/10 05:04:54;;;;;;;17.02;9.65;;;18.40;99.90;;;19.00;77.76;100798.06;4971777;28;20265;-69
2021/09/10 05:07:21;;;;;;;18.48;9.52;;;18.40;99.90;;;19.00;77.64;100800.72;4971704;28;20204;-70
2021/09/10 05:09:50;;;;;;;20.40;10.80;;;18.40;99.90;;;18.99;77.99;100799.00;4972151;28;20672;-68
2021/09/10 05:12:16;;;;;;;21.52;10.45;;;18.40;99.90;;;19.00;77.80;100797.19;4971086;28;20207;-69
2021/09/10 05:14:44;;;;;;;18.35;10.25;;;18.40;99.90;;;18.99;78.00;100796.34;4972138;28;20608;-70
2021/09/10 05:17:10;;;;;;;19.67;10.25;;;18.40;99.90;;;19.00;77.96;100798.06;4971220;28;20200;-72
2021/09/10 05:19:37;;;;;;;19.35;11.25;;;18.40;99.90;;;19.00;77.92;100792.75;4972359;28;20274;-70
2021/09/10 05:22:04;;;;;;;20.25;10.90;;;18.50;99.90;;;19.01;78.13;100788.28;4971515;28;20215;-70
2021/09/10 05:24:31;;;;;;;18.73;10.43;;;18.40;99.90;;;19.01;78.52;100797.09;4973872;28;20194;-69
2021/09/10 05:26:59;;;;;;;17.50;10.05;;;18.50;99.90;;;19.02;78.15;100801.47;4976568;28;20549;-70
2021/09/10 05:29:26;;;;;;;19.38;10.52;;;18.50;99.90;;;19.03;78.58;100797.84;4985747;28;20215;-70
2021/09/10 05:31:53;;;;;;;20.17;10.10;;;18.50;99.90;;;19.03;78.41;100797.84;4984971;28;20219;-70
2021/09/10 05:34:19;;;;;;;20.80;10.48;;;18.50;99.90;;;19.06;78.43;100802.91;4974140;28;20215;-71
2021/09/10 05:36:46;;;;;;;18.33;10.25;;;18.50;99.90;;;19.07;78.71;100801.13;4969186;28;20198;-70
2021/09/10 05:39:13;;;;;;;18.65;10.73;;;18.50;99.90;;;19.09;78.63;100808.00;4974524;28;20188;-69
2021/09/10 05:41:40;;;;;;;17.95;10.18;;;18.50;99.90;;;19.10;78.98;100808.84;4974746;28;20238;-69
2021/09/10 05:44:08;;;;;;;18.95;10.60;;;18.50;99.90;;;19.12;78.79;100815.75;4975759;28;20661;-70
2021/09/10 05:46:35;;;;;;;17.88;10.43;;;18.60;99.90;;;19.15;78.98;100812.88;4972626;28;20187;-70
2021/09/10 05:49:03;;;;;;;17.45;10.27;;;18.60;99.90;;;19.16;78.71;100814.56;4976155;28;20195;-70
2021/09/10 05:51:30;;;;;;;19.67;10.60;;;18.60;99.90;;;19.15;79.01;100823.50;4975471;28;20213;-71
2021/09/10 05:53:56;;;;;;;19.88;9.98;;;18.60;99.90;;;19.16;79.24;100821.69;4972853;28;20294;-69
2021/09/10 05:56:23;;;;;;;19.15;10.68;;;18.60;99.90;;;19.18;79.20;100825.06;4976590;28;20198;-69
2021/09/10 05:58:50;;;;;;;21.30;11.57;;;18.60;99.90;;;19.20;79.22;100826.69;4975650;28;20675;-70
2021/09/10 06:01:18;;;;;;;22.05;11.27;;;18.60;99.90;;;19.22;79.07;100832.72;4975864;28;20270;-69
2021/09/10 06:03:45;;;;;;;22.20;11.30;;;18.60;99.90;;;19.23;79.52;100826.44;4973216;28;20598;-69
2021/09/10 06:06:12;;;;;;;21.73;11.40;;;18.70;99.90;;;19.26;79.19;100820.06;4974294;28;20270;-69
2021/09/10 06:08:39;;;;;;;18.85;11.23;;;18.70;99.90;;;19.28;78.87;100823.47;4977080;28;20194;-70
2021/09/10 06:11:06;;;;;;;18.17;10.75;;;18.70;99.90;;;19.31;79.37;100824.13;4966071;28;20219;-73
2021/09/10 06:13:33;;;;;;;20.63;11.05;;;18.80;99.90;;;19.35;79.25;100824.75;4975874;28;20562;-69
2021/09/10 06:16:00;;;;;;;19.23;10.57;;;18.80;99.90;;;19.35;79.52;100825.63;4973107;28;20738;-70
2021/09/10 06:18:28;;;;;;;23.90;10.90;;;18.80;99.90;;;19.39;79.27;100826.25;4975536;28;20193;-70
2021/09/10 06:20:56;;;;;;;21.05;11.45;;;18.90;99.90;;;19.42;79.41;100826.00;4974101;28;20359;-72
2021/09/10 06:23:23;;;;;;;22.88;11.20;;;18.90;99.90;;;19.43;79.12;100836.53;4977110;28;20273;-73
2021/09/10 06:25:50;;;;;;;20.45;11.15;;;18.90;99.90;;;19.47;79.47;100835.34;4974552;28;20219;-69
2021/09/10 06:28:17;;;;;;;19.73;11.38;;;18.90;99.90;;;19.52;79.48;100832.34;4971136;28;20183;-71
2021/09/10 06:30:43;;;;;;;22.95;11.00;;;19.00;99.90;;;19.55;79.49;100843.59;4969454;28;20219;-70
2021/09/10 06:33:10;;;;;;;18.55;10.68;;;19.00;99.90;;;19.62;79.52;100846.66;4971897;28;20189;-70
2021/09/10 06:35:38;;;;;;;17.35;9.73;;;19.10;99.90;;;19.66;79.21;100846.31;4974618;28;20219;-69
2021/09/10 06:38:05;;;;;;;18.23;11.27;;;19.10;99.90;;;19.71;79.25;100848.63;4974705;28;20187;-70
2021/09/10 06:40:32;;;;;;;19.40;11.00;;;19.20;99.90;;;19.76;79.12;100846.47;4974453;28;20198;-70
2021/09/10 06:43:00;;;;;;;21.48;11.20;;;19.20;99.90;;;19.79;79.14;100847.09;4974109;28;20191;-69
2021/09/10 06:45:27;;;;;;;18.70;11.00;;;19.20;99.90;;;19.83;78.89;100845.06;4973338;28;20290;-69
2021/09/10 06:47:53;;;;;;;19.00;9.82;;;19.30;99.90;;;19.86;78.89;100843.03;4974004;28;20198;-71
2021/09/10 06:50:20;;;;;;;20.92;11.02;;;19.40;99.90;;;19.92;79.22;100847.06;4972438;28;20564;-71
2021/09/10 06:52:48;;;;;;;21.58;11.05;;;19.40;99.90;;;19.98;78.81;100845.78;4973789;28;20199;-70
2021/09/10 06:55:15;;;;;;;19.38;10.80;;;19.50;99.90;;;20.02;79.01;100849.88;4974646;28;20210;-70
2021/09/10 06:57:42;;;;;;;18.55;10.98;;;19.60;99.90;;;20.09;79.07;100853.78;4973103;28;20203;-70
2021/09/10 07:00:10;;;;;;;20.63;10.48;;;19.60;99.90;;;20.11;78.79;100855.34;4974428;28;20197;-72
2021/09/10 07:02:37;;;;;;;22.10;10.93;;;19.70;99.90;;;20.16;79.18;100853.22;4969494;28;20219;-73
2021/09/10 07:05:05;;;;;;;18.35;11.15;;;19.70;99.90;;;20.22;79.07;100860.75;4961335;28;20657;-70
2021/09/10 07:07:31;;;;;;;19.48;10.52;;;19.70;99.90;;;20.27;79.10;100860.41;4970940;28;20680;-71
2021/09/10 07:10:00;;;;;;;22.23;11.77;;;19.80;99.90;;;20.32;78.83;100858.25;4972320;28;20195;-70
2021/09/10 07:12:26;;;;;;;24.27;11.07;;;19.90;99.90;;;20.36;78.80;100865.03;4970599;28;20591;-70
2021/09/10 07:14:53;;;;;;;19.88;10.48;;;19.90;99.90;;;20.40;78.59;100863.81;4973531;28;20215;-70
2021/09/10 07:17:22;;;;;;;17.50;9.93;;;20.00;99.90;;;20.46;79.06;100866.88;4971822;28;20250;-71
2021/09/10 07:19:49;;;;;;;19.20;10.40;;;20.10;99.90;;;20.52;78.95;100853.13;4971312;28;20234;-71
2021/09/10 07:22:16;;;;;;;20.70;10.82;;;20.10;99.90;;;20.56;78.75;100859.91;4972027;28;20215;-72
2021/09/10 07:24:42;;;;;;;17.13;10.30;;;20.20;99.90;;;20.62;78.66;100862.09;4973055;28;20202;-72
2021/09/10 07:27:10;;;;;;;17.98;10.15;;;20.20;99.90;;;20.66;78.78;100868.03;4967351;28;20544;-71
2021/09/10 07:29:37;;;;;;;19.08;9.93;;;20.30;99.90;;;20.72;78.26;100864.88;4965498;28;20192;-71
2021/09/10 07:32:05;;;;;;;19.40;10.50;;;20.30;99.90;;;20.76;78.68;100867.22;4971780;28;20743;-71
2021/09/10 07:34:32;;;;;;;17.38;9.77;;;20.40;99.90;;;20.82;78.18;100876.50;4971011;28;20191;-71
2021/09/10 07:36:59;;;;;;;17.38;9.65;;;20.50;99.90;;;20.86;78.59;100883.31;4971586;28;20274;-72
2021/09/10 07:39:27;;;;;;;18.00;10.35;;;20.50;99.90;;;20.91;78.61;100884.66;4971306;28;20274;-70
2021/09/10 07:41:54;;;;;;;22.00;9.85;;;20.60;99.90;;;20.95;78.33;100887.91;4971881;28;20211;-70
2021/09/10 07:44:22;;;;;;;17.38;9.80;;;20.60;99.90;;;21.01;78.44;100882.16;4987740;28;20194;-71
2021/09/10 07:46:52;;;;;;;23.05;11.98;;;20.70;99.90;;;21.07;77.96;100886.97;4970634;28;20203;-70
2021/09/10 07:49:20;;;;;;;22.55;10.18;;;20.80;99.90;;;21.11;78.44;100885.78;4970595;28;20551;-72
2021/09/10 07:51:47;;;;;;;19.98;11.68;;;20.80;99.90;;;21.16;78.11;100888.94;4972997;28;20222;-71
2021/09/10 07:54:14;;;;;;;18.33;10.70;;;20.80;99.90;;;21.21;77.81;100889.41;4987454;28;20206;-70
2021/09/10 07:56:41;;;;;;;19.92;10.70;;;20.90;99.90;;;21.27;77.87;100888.09;4972010;28;20215;-71
2021/09/10 07:59:07;;;;;;;16.92;8.75;;;21.00;99.90;;;;;;4973925;28;20195;-69
2021/09/10 08:01:36;;;;;;;16.88;9.35;;;21.00;99.90;;;21.39;77.97;100885.28;4971573;28;20212;-71
2021/09/10 08:04:02;;;;;;;14.93;8.18;;;21.10;99.90;;;21.46;77.81;100883.84;4973452;28;20543;-70
2021/09/10 08:06:29;;;;;;;17.52;7.60;;;21.20;99.90;;;21.55;77.37;100892.91;4973779;28;20544;-72
2021/09/10 08:08:56;;;;;;;16.42;7.45;;;21.30;99.90;;;21.62;77.52;100886.13;4974526;28;20187;-71
2021/09/10 08:11:23;;;;;;;12.10;7.05;;;21.30;99.90;;;21.67;77.21;100898.09;4972897;28;20222;-74
2021/09/10 08:13:50;;;;;;;13.02;6.93;;;21.40;99.90;;;21.75;77.12;100898.31;4971859;28;20203;-70
2021/09/10 08:16:17;;;;;;;13.77;7.35;;;21.50;99.90;;;21.81;76.89;100895.19;4971521;28;20211;-69
2021/09/10 08:18:45;;;;;;;28.45;15.68;;;21.50;99.90;;;21.87;77.21;100894.69;4972129;28;20667;-69
2021/09/10 08:21:12;;;;;;;21.70;10.80;;;21.60;99.90;;;21.92;76.70;100892.50;4973556;28;20207;-72
2021/09/10 08:23:41;;;;;;;27.33;14.23;;;21.70;99.90;;;21.99;76.84;100891.03;4973931;28;20191;-71
2021/09/10 08:26:08;;;;;;;22.73;11.45;;;21.70;99.90;;;22.04;77.22;100894.16;4973362;28;20274;-71
2021/09/10 08:28:35;;;;;;;13.48;7.32;;;21.80;99.90;;;22.09;76.75;100897.28;4988141;28;20191;-70
2021/09/10 08:31:02;;;;;;;15.63;8.23;;;21.80;99.90;;;22.15;76.49;100901.28;4971871;28;20552;-71
2021/09/10 08:33:28;;;;;;;16.50;8.68;;;21.90;99.90;;;22.19;76.46;100890.22;4988127;28;20179;-70
2021/09/10 08:35:57;;;;;;;16.60;7.82;;;22.00;99.90;;;22.25;76.20;100895.03;4974102;28;20234;-70
2021/09/10 08:38:23;;;;;;;13.80;7.28;;;22.00;99.90;;;22.28;75.89;100892.16;4973203;28;20544;-70
2021/09/10 08:40:57;;;;;;;16.88;8.07;;;22.10;99.90;;;22.35;75.83;100890.63;4975196;28;20230;-70
2021/09/10 08:43:25;;;;;;;18.50;8.50;;;22.20;99.90;;;22.39;76.00;100892.09;4979849;28;20187;-70
2021/09/10 08:45:56;;;;;;;14.15;6.88;;;22.20;99.90;;;22.45;75.76;100893.41;4980690;28;20199;-70
2021/09/10 08:48:24;;;;;;;13.68;7.22;;;22.30;99.90;;;22.51;75.58;100894.69;4977780;28;20195;-70
2021/09/10 08:50:51;;;;;;;12.85;6.97;;;22.40;99.90;;;22.55;75.46;100890.81;4973375;28;20695;-71
2021/09/10 08:53:19;;;;;;;15.50;7.47;;;22.40;99.90;;;22.61;75.66;100895.63;4973098;28;20196;-71
2021/09/10 08:55:47;;;;;;;16.38;7.65;;;22.50;99.90;;;22.65;75.22;100897.09;4971441;28;20211;-71
2021/09/10 08:58:13;;;;;;;14.43;7.68;;;22.50;99.90;;;22.70;75.31;100894.88;4975375;28;20204;-69
2021/09/10 09:00:41;;;;;;;16.65;7.20;;;22.60;99.90;;;22.75;75.16;100898.00;4977110;28;20192;-73
2021/09/10 09:03:11;;;;;;;14.70;7.63;;;22.60;99.90;;;22.78;74.85;100895.06;4975971;28;20195;-70
2021/09/10 09:05:38;;;;;;;13.85;7.40;;;22.70;99.90;;;22.84;74.50;100902.56;4966573;28;20191;-71
2021/09/10 09:08:12;;;;;;;14.38;6.88;;;22.70;99.90;;;22.88;75.17;100903.97;4977205;28;20525;-71
2021/09/10 09:11:02;;;;;;;12.88;7.03;;;22.80;99.90;;;22.93;74.48;100901.75;4963169;28;20179;-69
2021/09/10 09:13:31;;;;;;;15.38;7.40;;;22.80;99.90;;;23.00;74.38;100902.91;4976701;28;20219;-71
2021/09/10 09:16:22;;;;;;;16.52;7.05;;;22.90;99.90;;;23.07;74.39;100909.44;4977636;28;20639;-70
2021/09/10 09:18:51;;;;;;;13.95;7.50;;;23.00;99.90;;;23.11;74.68;100900.16;4970720;28;20566;-71
2021/09/10 09:21:27;;;;;;;15.48;7.05;;;23.00;99.90;;;23.17;74.49;100910.34;4976772;28;20211;-72
2021/09/10 09:23:57;;;;;;;14.00;6.57;;;23.10;99.90;;;23.20;74.28;100904.72;4978925;28;20201;-71
2021/09/10 09:26:28;;;;;;;15.75;7.97;;;23.20;99.90;;;23.28;74.12;100907.59;4980682;28;20203;-72
2021/09/10 09:29:08;;;;;;;12.68;6.85;;;23.20;99.90;;;23.34;73.96;100907.06;4974380;28;20195;-71
2021/09/10 09:31:35;;;;;;;14.63;7.68;;;23.30;99.90;;;23.40;73.91;100911.88;4990483;28;20219;-71
2021/09/10 09:34:04;;;;;;;13.85;7.05;;;23.40;99.90;;;23.44;73.69;100906.13;4976746;28;20215;-72
2021/09/10 09:36:31;;;;;;;13.85;7.13;;;23.40;99.90;;;23.51;73.54;100909.13;4975784;28;20207;-73
2021/09/10 09:38:58;;;;;;;12.88;6.95;;;23.50;99.90;;;23.57;73.53;100913.91;4973037;28;20632;-72
2021/09/10 09:41:27;;;;;;;17.48;6.90;;;23.60;99.90;;;23.63;73.19;100916.03;4975414;28;20223;-72
2021/09/10 09:44:08;;;;;;;13.63;6.20;;;23.60;99.90;;;23.69;73.01;100918.19;4976860;28;20195;-71
2021/09/10 09:46:35;;;;;;;13.07;7.20;;;23.60;99.90;;;23.73;73.33;100919.56;4974041;28;20563;-72
2021/09/10 09:49:11;;;;;;;12.85;6.63;;;23.70;99.90;;;23.80;72.77;100914.53;4972539;28;20221;-70
2021/09/10 09:51:58;;;;;;;17.10;7.75;;;23.70;99.90;;;23.86;72.13;100914.00;4980530;28;20730;-70
2021/09/10 09:54:26;;;;;;;16.58;8.15;;;23.80;99.90;;;23.90;72.56;100924.28;4968047;28;20219;-73
2021/09/10 09:56:55;;;;;;;14.43;6.47;;;23.80;99.90;;;23.95;71.88;100916.69;4976786;28;20214;-68
2021/09/10 09:59:22;;;;;;;13.57;7.20;;;23.90;99.90;;;24.01;72.16;100910.84;4976283;28;20238;-74
2021/09/10 10:01:49;;;;;;;16.70;7.63;;;24.00;99.90;;;24.05;71.71;100920.25;4971554;28;20227;-72
2021/09/10 10:04:16;;;;;;;16.95;7.40;;;24.00;99.90;;;24.10;71.76;100919.81;4971578;28;20686;-73
2021/09/10 10:06:45;;;;;;;15.70;8.45;;;24.10;99.90;;;24.12;71.55;100921.41;4970889;28;20191;-70
2021/09/10 10:09:16;;;;;;;14.70;7.65;;;24.10;99.90;;;24.14;71.60;100919.44;4973918;28;20188;-70
2021/09/10 10:11:49;;;;;;;15.88;7.57;;;24.20;99.90;;;24.18;70.93;100920.81;4974873;28;20687;-71